createdAt,value
2019-03-06T00:00:49.445Z,5.92
2019-03-06T00:05:58.081Z,5.79
2019-03-06T00:11:03.449Z,5.80
2019-03-06T00:16:08.925Z,5.72
2019-03-06T00:21:14.249Z,5.65
2019-03-06T00:26:20.967Z,5.70
2019-03-06T00:31:26.257Z,5.72
2019-03-06T00:36:33.237Z,5.87
2019-03-06T00:41:43.966Z,5.84
2019-03-06T00:46:49.181Z,5.80
2019-03-06T00:51:54.381Z,5.61
2019-03-06T00:56:59.843Z,5.58
2019-03-06T01:02:05.423Z,5.60
2019-03-06T01:07:11.529Z,5.63
2019-03-06T01:12:16.877Z,5.63
2019-03-06T01:17:22.145Z,5.58
2019-03-06T01:22:27.553Z,5.59
2019-03-06T01:27:32.861Z,5.62
2019-03-06T01:32:38.252Z,5.64
2019-03-06T01:38:08.557Z,5.67
2019-03-06T01:43:21.256Z,5.71
2019-03-06T01:48:26.584Z,5.74
2019-03-06T01:53:31.955Z,5.74
2019-03-06T01:58:37.580Z,5.84
2019-03-06T02:03:43.642Z,5.79
2019-03-06T02:08:49.359Z,5.76
2019-03-06T02:13:54.590Z,5.73
2019-03-06T02:19:03.074Z,5.81
2019-03-06T02:24:08.302Z,5.97
2019-03-06T02:29:14.796Z,5.89
2019-03-06T02:34:20.092Z,5.89
2019-03-06T02:39:26.737Z,5.95
2019-03-06T02:44:33.352Z,5.91
2019-03-06T02:49:39.180Z,5.88
2019-03-06T02:54:44.499Z,5.78
2019-03-06T03:00:22.407Z,5.80
2019-03-06T03:05:40.111Z,5.82
2019-03-06T03:10:45.307Z,5.80
2019-03-06T03:15:50.623Z,5.81
2019-03-06T03:20:56.585Z,5.87
2019-03-06T03:26:01.774Z,5.87
2019-03-06T03:31:07.149Z,5.87
2019-03-06T03:36:12.339Z,5.86
2019-03-06T03:41:17.664Z,5.90
2019-03-06T03:46:23.389Z,5.90
2019-03-06T03:51:31.373Z,5.84
2019-03-06T03:56:36.670Z,5.88
2019-03-06T04:01:42.469Z,5.95
2019-03-06T04:06:47.976Z,5.89
2019-03-06T04:11:55.288Z,5.96
2019-03-06T04:17:01.811Z,5.85
2019-03-06T04:22:08.107Z,5.89
2019-03-06T04:27:13.320Z,5.79
2019-03-06T04:32:19.941Z,5.85
2019-03-06T04:37:27.511Z,5.84
2019-03-06T04:42:32.858Z,5.83
2019-03-06T04:47:38.180Z,5.87
2019-03-06T04:52:43.726Z,5.85
2019-03-06T04:57:50.578Z,5.65
2019-03-06T05:02:57.982Z,5.66
2019-03-06T05:08:03.187Z,5.66
2019-03-06T05:13:09.801Z,5.70
2019-03-06T05:18:25.182Z,5.60
2019-03-06T05:23:30.577Z,5.63
2019-03-06T05:28:35.959Z,5.63
2019-03-06T05:33:43.215Z,5.67
2019-03-06T05:39:04.306Z,5.55
2019-03-06T05:44:11.376Z,5.53
2019-03-06T05:49:16.627Z,5.52
2019-03-06T05:54:22.177Z,5.51
2019-03-06T05:59:29.177Z,5.43
2019-03-06T06:04:34.381Z,5.41
2019-03-06T06:09:41.180Z,5.53
2019-03-06T06:14:47.051Z,5.43
2019-03-06T06:19:55.362Z,5.45
2019-03-06T06:25:00.732Z,5.60
2019-03-06T06:30:08.612Z,5.72
2019-03-06T06:35:17.080Z,5.93
2019-03-06T06:40:22.898Z,5.89
2019-03-06T06:45:28.457Z,5.93
2019-03-06T06:50:35.290Z,6.01
2019-03-06T06:55:52.977Z,6.13
2019-03-06T07:01:45.410Z,6.23
2019-03-06T07:07:11.395Z,6.52
2019-03-06T07:12:21.770Z,6.84
2019-03-06T07:17:32.819Z,6.95
2019-03-06T07:22:52.717Z,7.08
2019-03-06T07:28:14.263Z,7.16
2019-03-06T07:33:37.222Z,7.33
2019-03-06T07:38:43.009Z,7.40
2019-03-06T07:44:06.358Z,7.65
2019-03-06T07:49:44.647Z,7.79
2019-03-06T07:55:53.885Z,7.84
2019-03-06T08:00:59.267Z,7.89
2019-03-06T08:06:04.572Z,7.82
2019-03-06T08:11:15.521Z,8.04
2019-03-06T08:16:31.518Z,8.19
2019-03-06T08:22:07.536Z,8.52
2019-03-06T08:27:12.791Z,8.71
2019-03-06T08:32:29.766Z,9.01
2019-03-06T08:37:34.977Z,9.25
2019-03-06T08:42:40.322Z,9.25
2019-03-06T08:47:57.054Z,9.43
2019-03-06T08:53:19.800Z,9.64
2019-03-06T08:58:42.713Z,9.98
2019-03-06T09:03:57.905Z,10.22
2019-03-06T09:09:24.889Z,10.47
2019-03-06T09:14:53.078Z,10.58
2019-03-06T09:20:16.330Z,10.83
2019-03-06T09:25:38.545Z,10.84
2019-03-06T09:31:05.928Z,10.97
2019-03-06T09:36:27.350Z,11.19
2019-03-06T09:41:51.663Z,11.33
2019-03-06T09:47:12.507Z,11.59
2019-03-06T09:52:36.708Z,11.83
2019-03-06T09:57:51.939Z,12.25
2019-03-06T10:03:14.643Z,12.43
2019-03-06T10:08:37.541Z,12.74
2019-03-06T10:13:52.214Z,12.94
2019-03-06T10:19:13.190Z,13.18
2019-03-06T10:24:18.369Z,13.18
2019-03-06T10:29:23.645Z,13.42
2019-03-06T10:34:28.946Z,13.62
2019-03-06T10:39:34.701Z,13.72
2019-03-06T10:44:40.011Z,13.99
2019-03-06T10:49:45.415Z,14.22
2019-03-06T10:54:50.884Z,14.06
2019-03-06T10:59:56.917Z,14.49
2019-03-06T11:05:13.943Z,14.31
2019-03-06T11:10:23.757Z,14.56
2019-03-06T11:15:28.495Z,15.16
2019-03-06T11:20:35.937Z,15.10
2019-03-06T11:25:41.927Z,14.75
2019-03-06T11:30:50.563Z,14.73
2019-03-06T11:35:56.815Z,14.32
2019-03-06T11:41:02.748Z,14.36
2019-03-06T11:46:10.288Z,14.27
2019-03-06T11:51:15.953Z,14.13
2019-03-06T11:56:21.227Z,13.88
2019-03-06T12:01:29.437Z,13.53
2019-03-06T12:06:35.177Z,13.36
2019-03-06T12:11:40.484Z,13.49
2019-03-06T12:16:45.714Z,13.26
2019-03-06T12:21:51.270Z,13.38
2019-03-06T12:26:58.454Z,13.23
2019-03-06T12:32:05.261Z,13.13
2019-03-06T12:37:10.933Z,12.99
2019-03-06T12:42:16.956Z,13.10
2019-03-06T12:47:22.338Z,13.00
2019-03-06T12:52:27.980Z,12.80
2019-03-06T12:57:34.015Z,12.77
2019-03-06T13:02:39.280Z,12.79
2019-03-06T13:07:44.796Z,12.91
2019-03-06T13:12:51.007Z,12.89
2019-03-06T13:17:57.141Z,13.03
2019-03-06T13:23:04.202Z,12.83
2019-03-06T13:28:09.765Z,12.70
2019-03-06T13:33:41.109Z,12.68
2019-03-06T13:38:54.671Z,12.66
2019-03-06T13:43:55.123Z,12.66
2019-03-06T13:49:01.058Z,12.72
2019-03-06T13:54:06.290Z,12.87
2019-03-06T13:59:11.649Z,13.04
2019-03-06T14:04:17.427Z,13.14
2019-03-06T14:09:22.953Z,13.27
2019-03-06T14:14:28.672Z,13.20
2019-03-06T14:19:34.199Z,13.20
2019-03-06T14:24:40.253Z,13.20
2019-03-06T14:29:46.637Z,12.92
2019-03-06T14:34:52.551Z,13.16
2019-03-06T14:39:59.474Z,13.20
2019-03-06T14:45:05.734Z,13.09
2019-03-06T14:50:12.103Z,13.09
2019-03-06T14:55:17.381Z,13.25
2019-03-06T15:00:22.902Z,13.17
2019-03-06T15:05:28.558Z,13.24
2019-03-06T15:10:42.554Z,13.42
2019-03-06T15:15:41.343Z,13.42
2019-03-06T15:20:47.012Z,13.31
2019-03-06T15:25:52.609Z,13.43
2019-03-06T15:30:59.858Z,13.43
2019-03-06T15:36:06.428Z,13.45
2019-03-06T15:41:12.358Z,13.37
2019-03-06T15:46:17.601Z,13.44
2019-03-06T15:51:22.850Z,13.44
2019-03-06T15:56:28.625Z,13.47
2019-03-06T16:01:34.228Z,13.40
2019-03-06T16:06:39.448Z,13.43
2019-03-06T16:11:46.579Z,13.48
2019-03-06T16:16:52.836Z,13.44
2019-03-06T16:21:58.394Z,13.51
2019-03-06T16:27:12.162Z,13.45
2019-03-06T16:32:18.381Z,13.53
2019-03-06T16:37:24.031Z,13.55
2019-03-06T16:42:29.470Z,13.49
2019-03-06T16:47:35.326Z,13.47
2019-03-06T16:52:40.758Z,13.45
2019-03-06T16:57:47.782Z,13.41
2019-03-06T17:02:53.115Z,13.32
2019-03-06T17:07:59.029Z,13.39
2019-03-06T17:13:04.810Z,13.24
2019-03-06T17:18:10.982Z,13.22
2019-03-06T17:23:16.274Z,13.03
2019-03-06T17:28:21.621Z,12.92
2019-03-06T17:33:27.429Z,12.89
2019-03-06T17:38:32.796Z,12.94
2019-03-06T17:43:38.118Z,13.02
2019-03-06T17:48:44.312Z,12.87
2019-03-06T17:53:49.899Z,12.81
2019-03-06T17:58:55.501Z,12.78
2019-03-06T18:04:20.652Z,12.82
2019-03-06T18:09:26.156Z,12.79
2019-03-06T18:14:31.647Z,12.81
2019-03-06T18:19:37.818Z,12.66
2019-03-06T18:24:43.039Z,12.60
2019-03-06T18:29:48.243Z,12.60
2019-03-06T18:34:53.843Z,12.54
2019-03-06T18:39:59.199Z,12.50
2019-03-06T18:45:07.275Z,12.47
2019-03-06T18:50:15.631Z,12.41
2019-03-06T18:55:20.944Z,12.39
2019-03-06T19:00:26.348Z,12.30
2019-03-06T19:05:31.790Z,12.20
2019-03-06T19:10:38.181Z,12.30
2019-03-06T19:15:43.636Z,12.26
2019-03-06T19:20:49.479Z,12.23
2019-03-06T19:25:55.490Z,12.19
2019-03-06T19:31:00.940Z,12.19
2019-03-06T19:36:06.510Z,12.19
2019-03-06T19:41:12.972Z,12.16
2019-03-06T19:46:19.250Z,12.09
2019-03-06T19:51:25.083Z,11.95
2019-03-06T19:56:30.695Z,11.81
2019-03-06T20:01:36.521Z,11.83
2019-03-06T20:06:42.366Z,11.77
2019-03-06T20:11:47.995Z,11.88
2019-03-06T20:16:54.111Z,11.95
2019-03-06T20:22:02.039Z,11.92
2019-03-06T20:27:07.644Z,11.93
2019-03-06T20:32:13.033Z,11.93
2019-03-06T20:37:18.310Z,11.89
2019-03-06T20:42:23.965Z,11.92
2019-03-06T20:47:30.053Z,11.95
2019-03-06T20:52:35.337Z,11.91
2019-03-06T20:57:40.792Z,11.96
2019-03-06T21:02:46.537Z,11.89
2019-03-06T21:07:54.154Z,11.86
2019-03-06T21:12:59.440Z,11.83
2019-03-06T21:18:04.736Z,11.73
2019-03-06T21:23:10.432Z,11.66
2019-03-06T21:28:15.879Z,11.65
2019-03-06T21:33:22.066Z,11.50
2019-03-06T21:38:28.073Z,11.42
2019-03-06T21:43:33.390Z,11.34
2019-03-06T21:48:39.658Z,11.28
2019-03-06T21:53:45.235Z,11.25
2019-03-06T21:58:50.867Z,11.25
2019-03-06T22:03:57.933Z,11.27
2019-03-06T22:09:05.373Z,11.21
2019-03-06T22:14:13.209Z,11.34
2019-03-06T22:19:18.922Z,11.39
2019-03-06T22:24:24.330Z,11.64
2019-03-06T22:29:29.546Z,11.75
2019-03-06T22:34:35.043Z,11.85
2019-03-06T22:39:41.887Z,11.81
2019-03-06T22:44:47.199Z,11.86
2019-03-06T22:49:53.388Z,11.91
2019-03-06T22:54:58.688Z,11.91
2019-03-06T23:00:05.843Z,11.92
2019-03-06T23:05:12.315Z,11.90
2019-03-06T23:10:17.724Z,11.89
2019-03-06T23:15:23.656Z,11.76
2019-03-06T23:20:28.801Z,11.79
2019-03-06T23:25:34.061Z,11.80
2019-03-06T23:30:39.930Z,11.81
2019-03-06T23:35:51.251Z,11.71
2019-03-06T23:40:57.580Z,11.79
2019-03-06T23:46:02.937Z,11.80
2019-03-06T23:51:22.020Z,11.82
2019-03-06T23:56:28.183Z,11.82
